Atkins, Arkansas
Current Conditions -  °F | °C
As of 2:23 AM on Sunday 26 Oct 2014 (Local Time) from KRUE Reporting Station
Haze Haze  
Wind Chill: 59°   Ceiling: 500
Heat Index: 59°   Visibility: 0.75mi
Dew Point: 57°   Wind: 0mph
Humidity: 93%   Direction: NA
Pressure: 30.01"   Gusts: NA
Location:  35.25°N, 92.94°W
Report Text: KRUE 260723Z AUTO 00000KT 3/4SM BR VV005 15/14 A3001 RMK AO2 T01500139
Loading
Personal Weather Stations






























Interactive Weather Map
Tropical Storm Tracking
New forecast layout! Learn more

10-Day Weather Forecast

Advertisements
Track Severe Weather on mobile